Time,TemperatureF,DewpointF,PressureIn,WindDirection,WindDirectionDegrees,WindSpeedMPH,WindSpeedGustMPH,Humidity,HourlyPrecipIn,Conditions,Clouds,dailyrainin,SoftwareType,DateUTC
2013-04-06 00:02:00,48.9,21.0,30.13,North,0,7.0,12.0,33,0.00,,,0.26,meteohub,2013-04-06 04:02:00,
2013-04-06 00:12:00,48.9,21.7,30.13,NW,315,5.0,12.0,34,0.00,,,0.00,meteohub,2013-04-06 04:12:00,
2013-04-06 00:22:00,48.9,21.7,30.13,North,0,6.0,11.0,34,0.00,,,0.00,meteohub,2013-04-06 04:22:00,
2013-04-06 00:32:00,48.0,21.7,30.13,NW,315,6.0,9.0,35,0.00,,,0.00,meteohub,2013-04-06 04:32:00,
2013-04-06 00:42:00,48.0,21.7,30.14,North,0,2.0,12.0,35,0.00,,,0.00,meteohub,2013-04-06 04:42:00,
2013-04-06 00:52:00,46.9,20.7,30.14,WNW,292,2.0,11.0,35,0.00,,,0.00,meteohub,2013-04-06 04:52:00,
2013-04-06 01:02:00,46.9,21.4,30.15,North,0,4.0,8.0,36,0.00,,,0.00,meteohub,2013-04-06 05:02:00,
2013-04-06 01:12:00,46.9,21.4,30.15,NW,315,3.0,9.0,36,0.00,,,0.00,meteohub,2013-04-06 05:12:00,
2013-04-06 01:22:00,46.0,20.5,30.15,North,0,4.0,10.0,36,0.00,,,0.00,meteohub,2013-04-06 05:22:00,
2013-04-06 01:32:00,46.0,19.9,30.15,North,0,4.0,9.0,35,0.00,,,0.00,meteohub,2013-04-06 05:32:00,
2013-04-06 01:42:00,46.0,19.2,30.16,North,0,4.0,10.0,34,0.00,,,0.00,meteohub,2013-04-06 05:42:00,
2013-04-06 01:52:00,45.0,18.3,30.16,North,0,2.0,11.0,34,0.00,,,0.00,meteohub,2013-04-06 05:52:00,
2013-04-06 02:02:00,45.0,18.9,30.16,NW,315,4.0,11.0,35,0.00,,,0.00,meteohub,2013-04-06 06:02:00,
2013-04-06 02:12:00,44.1,17.4,30.17,NW,315,4.0,9.0,34,0.00,,,0.00,meteohub,2013-04-06 06:12:00,
2013-04-06 02:22:00,44.1,18.1,30.17,NW,315,4.0,11.0,35,0.00,,,0.00,meteohub,2013-04-06 06:22:00,
2013-04-06 02:32:00,44.1,18.9,30.17,NW,315,7.0,12.0,36,0.00,,,0.00,meteohub,2013-04-06 06:32:00,
2013-04-06 02:42:00,43.0,17.8,30.17,North,0,2.0,12.0,36,0.00,,,0.00,meteohub,2013-04-06 06:42:00,
2013-04-06 02:52:00,43.0,18.5,30.18,NW,315,3.0,14.0,37,0.00,,,0.00,meteohub,2013-04-06 06:52:00,
2013-04-06 03:02:00,43.0,19.0,30.17,WNW,292,4.0,11.0,38,0.00,,,0.00,meteohub,2013-04-06 07:02:00,
2013-04-06 03:12:00,42.1,18.9,30.18,NE,45,2.0,11.0,39,0.00,,,0.00,meteohub,2013-04-06 07:12:00,
2013-04-06 03:22:00,42.1,19.6,30.18,North,0,1.0,9.0,40,0.00,,,0.00,meteohub,2013-04-06 07:22:00,
2013-04-06 03:32:00,42.1,19.6,30.18,North,0,3.0,9.0,40,0.00,,,0.00,meteohub,2013-04-06 07:32:00,
2013-04-06 03:42:00,41.0,19.6,30.18,North,0,4.0,11.0,42,0.00,,,0.00,meteohub,2013-04-06 07:42:00,
2013-04-06 03:52:00,41.0,20.3,30.18,North,0,1.0,8.0,43,0.00,,,0.00,meteohub,2013-04-06 07:52:00,
2013-04-06 04:02:00,41.0,20.8,30.19,NW,315,4.0,9.0,44,0.00,,,0.00,meteohub,2013-04-06 08:02:00,
2013-04-06 04:12:00,41.0,21.2,30.20,NW,315,1.0,11.0,45,0.00,,,0.00,meteohub,2013-04-06 08:12:00,
2013-04-06 04:22:00,39.9,20.3,30.20,WNW,292,4.0,10.0,45,0.00,,,0.00,meteohub,2013-04-06 08:22:00,
2013-04-06 04:32:00,39.9,20.8,30.20,North,0,7.0,11.0,46,0.00,,,0.00,meteohub,2013-04-06 08:32:00,
2013-04-06 04:42:00,39.9,20.8,30.20,North,0,2.0,9.0,46,0.00,,,0.00,meteohub,2013-04-06 08:42:00,
2013-04-06 04:52:00,39.0,21.0,30.21,North,0,6.0,9.0,48,0.00,,,0.00,meteohub,2013-04-06 08:52:00,
2013-04-06 05:02:00,39.0,21.6,30.21,NW,315,6.0,9.0,49,0.00,,,0.00,meteohub,2013-04-06 09:02:00,
2013-04-06 05:12:00,39.0,21.6,30.21,North,0,3.0,10.0,49,0.00,,,0.00,meteohub,2013-04-06 09:12:00,
2013-04-06 05:22:00,39.0,21.9,30.22,NNW,337,2.0,8.0,50,0.00,,,0.00,meteohub,2013-04-06 09:22:00,
2013-04-06 05:32:00,37.9,21.0,30.22,North,0,2.0,8.0,50,0.00,,,0.00,meteohub,2013-04-06 09:32:00,
2013-04-06 05:42:00,37.9,21.4,30.23,North,0,1.0,7.0,51,0.00,,,0.00,meteohub,2013-04-06 09:42:00,
2013-04-06 05:52:00,37.9,21.9,30.23,North,0,2.0,7.0,52,0.00,,,0.00,meteohub,2013-04-06 09:52:00,
2013-04-06 06:02:00,37.0,21.0,30.24,North,0,1.0,4.0,52,0.00,,,0.00,meteohub,2013-04-06 10:02:00,
2013-04-06 06:12:00,37.0,21.6,30.24,NW,315,3.0,4.0,53,0.00,,,0.00,meteohub,2013-04-06 10:12:00,
2013-04-06 06:22:00,37.0,21.9,30.25,NNW,337,3.0,6.0,54,0.00,,,0.00,meteohub,2013-04-06 10:22:00,
2013-04-06 06:32:00,37.0,21.9,30.25,NE,45,1.0,6.0,54,0.00,,,0.00,meteohub,2013-04-06 10:32:00,
2013-04-06 06:42:00,36.0,21.0,30.26,North,0,2.0,3.0,54,0.00,,,0.00,meteohub,2013-04-06 10:42:00,
2013-04-06 06:52:00,36.0,21.4,30.27,North,0,1.0,4.0,55,0.00,,,0.00,meteohub,2013-04-06 10:52:00,
2013-04-06 07:02:00,36.0,21.4,30.28,North,0,3.0,4.0,55,0.00,,,0.00,meteohub,2013-04-06 11:02:00,
2013-04-06 07:12:00,36.0,21.4,30.29,North,0,1.0,4.0,55,0.00,,,0.00,meteohub,2013-04-06 11:12:00,
2013-04-06 07:22:00,36.0,21.4,30.30,NW,315,1.0,4.0,55,0.00,,,0.00,meteohub,2013-04-06 11:22:00,
2013-04-06 07:32:00,37.0,22.5,30.30,NW,315,2.0,4.0,55,0.00,,,0.00,meteohub,2013-04-06 11:32:00,
2013-04-06 07:42:00,37.0,21.9,30.30,North,0,2.0,6.0,54,0.00,,,0.00,meteohub,2013-04-06 11:42:00,
2013-04-06 07:52:00,37.9,22.3,30.31,NNW,337,1.0,6.0,53,0.00,,,0.00,meteohub,2013-04-06 11:52:00,
2013-04-06 08:02:00,39.0,22.5,30.32,NW,315,1.0,6.0,51,0.00,,,0.00,meteohub,2013-04-06 12:02:00,
2013-04-06 08:12:00,39.0,21.6,30.34,North,0,5.0,7.0,49,0.00,,,0.00,meteohub,2013-04-06 12:12:00,
2013-04-06 08:22:00,39.9,21.7,30.34,North,0,5.0,7.0,48,0.00,,,0.00,meteohub,2013-04-06 12:22:00,
2013-04-06 08:32:00,41.0,22.3,30.35,NW,315,3.0,8.0,47,0.00,,,0.00,meteohub,2013-04-06 12:32:00,
2013-04-06 08:42:00,41.0,21.7,30.35,East,90,2.0,9.0,46,0.00,,,0.00,meteohub,2013-04-06 12:42:00,
2013-04-06 08:52:00,41.0,21.2,30.36,NW,315,7.0,10.0,45,0.00,,,0.00,meteohub,2013-04-06 12:52:00,
2013-04-06 09:02:00,42.1,21.7,30.36,East,90,4.0,12.0,44,0.00,,,0.00,meteohub,2013-04-06 13:02:00,
2013-04-06 09:12:00,42.1,21.2,30.37,North,0,2.0,9.0,43,0.00,,,0.00,meteohub,2013-04-06 13:12:00,
2013-04-06 09:22:00,42.1,21.7,30.37,NE,45,5.0,9.0,44,0.00,,,0.00,meteohub,2013-04-06 13:22:00,
2013-04-06 09:32:00,42.1,21.2,30.38,NE,45,3.0,11.0,43,0.00,,,0.00,meteohub,2013-04-06 13:32:00,
2013-04-06 09:42:00,43.0,21.4,30.38,North,0,0.0,6.0,42,0.00,,,0.00,meteohub,2013-04-06 13:42:00,
2013-04-06 09:52:00,43.0,21.4,30.38,North,0,1.0,7.0,42,0.00,,,0.00,meteohub,2013-04-06 13:52:00,
2013-04-06 10:02:00,44.1,22.5,30.38,North,0,2.0,8.0,42,0.00,,,0.00,meteohub,2013-04-06 14:02:00,
2013-04-06 10:12:00,44.1,21.2,30.39,NE,45,2.0,8.0,40,0.00,,,0.00,meteohub,2013-04-06 14:12:00,
2013-04-06 10:22:00,44.1,21.2,30.39,NE,45,2.0,8.0,40,0.00,,,0.00,meteohub,2013-04-06 14:22:00,
2013-04-06 10:32:00,45.0,20.8,30.40,NW,315,4.0,10.0,38,0.00,,,0.00,meteohub,2013-04-06 14:32:00,
2013-04-06 10:42:00,46.0,21.9,30.40,East,90,2.0,10.0,38,0.00,,,0.00,meteohub,2013-04-06 14:42:00,
2013-04-06 10:52:00,46.0,21.2,30.40,NW,315,2.0,6.0,37,0.00,,,0.00,meteohub,2013-04-06 14:52:00,
2013-04-06 11:02:00,46.0,21.2,30.41,North,0,0.0,6.0,37,0.00,,,0.00,meteohub,2013-04-06 15:02:00,
2013-04-06 11:12:00,46.9,21.4,30.41,NE,45,3.0,6.0,36,0.00,,,0.00,meteohub,2013-04-06 15:12:00,
2013-04-06 11:22:00,46.9,22.1,30.41,NE,45,4.0,6.0,37,0.00,,,0.00,meteohub,2013-04-06 15:22:00,
2013-04-06 11:32:00,48.0,21.0,30.41,NW,315,2.0,7.0,34,0.00,,,0.00,meteohub,2013-04-06 15:32:00,
2013-04-06 11:42:00,46.9,20.7,30.41,NW,315,3.0,6.0,35,0.00,,,0.00,meteohub,2013-04-06 15:42:00,
2013-04-06 11:52:00,48.0,20.3,30.41,ESE,112,3.0,7.0,33,0.00,,,0.00,meteohub,2013-04-06 15:52:00,
2013-04-06 12:02:00,50.0,20.5,30.41,South,180,2.0,7.0,31,0.00,,,0.00,meteohub,2013-04-06 16:02:00,
2013-04-06 12:12:00,50.0,21.4,30.42,SE,135,2.0,4.0,32,0.00,,,0.00,meteohub,2013-04-06 16:12:00,
2013-04-06 12:22:00,50.0,21.4,30.42,South,180,1.0,6.0,32,0.00,,,0.00,meteohub,2013-04-06 16:22:00,
2013-04-06 12:32:00,51.1,21.6,30.42,ESE,112,1.0,7.0,31,0.00,,,0.00,meteohub,2013-04-06 16:32:00,
2013-04-06 12:42:00,51.1,22.3,30.42,SE,135,2.0,7.0,32,0.00,,,0.00,meteohub,2013-04-06 16:42:00,
2013-04-06 12:52:00,51.1,21.6,30.42,NE,45,2.0,6.0,31,0.00,,,0.00,meteohub,2013-04-06 16:52:00,
2013-04-06 13:02:00,52.0,23.0,30.41,ESE,112,4.0,4.0,32,0.00,,,0.00,meteohub,2013-04-06 17:02:00,
2013-04-06 13:12:00,53.1,22.5,30.41,South,180,2.0,4.0,30,0.00,,,0.00,meteohub,2013-04-06 17:12:00,
2013-04-06 13:22:00,53.1,21.6,30.41,NE,45,1.0,4.0,29,0.00,,,0.00,meteohub,2013-04-06 17:22:00,
2013-04-06 13:32:00,55.0,23.4,30.42,South,180,2.0,4.0,29,0.00,,,0.00,meteohub,2013-04-06 17:32:00,
2013-04-06 13:42:00,54.0,21.6,30.42,NW,315,2.0,6.0,28,0.00,,,0.00,meteohub,2013-04-06 17:42:00,
2013-04-06 13:52:00,54.0,21.6,30.41,NE,45,1.0,6.0,28,0.00,,,0.00,meteohub,2013-04-06 17:52:00,
2013-04-06 14:02:00,54.0,20.7,30.41,South,180,2.0,6.0,27,0.00,,,0.00,meteohub,2013-04-06 18:02:00,
2013-04-06 14:12:00,55.9,21.6,30.41,South,180,1.0,6.0,26,0.00,,,0.00,meteohub,2013-04-06 18:12:00,
2013-04-06 14:22:00,55.9,20.7,30.42,South,180,1.0,4.0,25,0.00,,,0.00,meteohub,2013-04-06 18:22:00,
2013-04-06 14:32:00,57.0,20.5,30.41,SW,225,0.0,6.0,24,0.00,,,0.00,meteohub,2013-04-06 18:32:00,
2013-04-06 14:42:00,57.9,19.2,30.41,East,90,2.0,5.0,22,0.00,,,0.00,meteohub,2013-04-06 18:42:00,
2013-04-06 14:52:00,57.0,17.4,30.41,SE,135,0.0,4.0,21,0.00,,,0.00,meteohub,2013-04-06 18:52:00,
2013-04-06 15:02:00,57.0,16.3,30.40,ESE,112,5.0,8.0,20,0.00,,,0.00,meteohub,2013-04-06 19:02:00,
2013-04-06 15:12:00,55.9,17.6,30.40,NW,315,1.0,8.0,22,0.00,,,0.00,meteohub,2013-04-06 19:12:00,
2013-04-06 15:22:00,57.0,15.1,30.40,SW,225,3.0,6.0,19,0.00,,,0.00,meteohub,2013-04-06 19:22:00,
2013-04-06 15:32:00,57.0,16.3,30.39,SE,135,1.0,5.0,20,0.00,,,0.00,meteohub,2013-04-06 19:32:00,
2013-04-06 15:42:00,55.9,17.6,30.39,WNW,292,2.0,7.0,22,0.00,,,0.00,meteohub,2013-04-06 19:42:00,
2013-04-06 15:52:00,57.0,19.6,30.39,NE,45,0.0,5.0,23,0.00,,,0.00,meteohub,2013-04-06 19:52:00,
2013-04-06 16:02:00,57.0,20.5,30.38,ESE,112,3.0,7.0,24,0.00,,,0.00,meteohub,2013-04-06 20:02:00,
2013-04-06 16:12:00,57.0,18.5,30.38,ESE,112,3.0,7.0,22,0.00,,,0.00,meteohub,2013-04-06 20:12:00,
2013-04-06 16:22:00,57.0,18.5,30.38,SE,135,2.0,6.0,22,0.00,,,0.00,meteohub,2013-04-06 20:22:00,
2013-04-06 16:32:00,57.9,20.3,30.38,SSE,157,2.0,6.0,23,0.00,,,0.00,meteohub,2013-04-06 20:32:00,
2013-04-06 16:42:00,59.0,20.1,30.38,South,180,3.0,5.0,22,0.00,,,0.00,meteohub,2013-04-06 20:42:00,
2013-04-06 16:52:00,59.0,20.1,30.38,SW,225,4.0,6.0,22,0.00,,,0.00,meteohub,2013-04-06 20:52:00,
2013-04-06 17:02:00,57.9,20.3,30.38,SE,135,2.0,6.0,23,0.00,,,0.00,meteohub,2013-04-06 21:02:00,
2013-04-06 17:12:00,57.9,21.4,30.38,South,180,2.0,7.0,24,0.00,,,0.00,meteohub,2013-04-06 21:12:00,
2013-04-06 17:22:00,59.0,20.1,30.38,ESE,112,2.0,6.0,22,0.00,,,0.00,meteohub,2013-04-06 21:22:00,
2013-04-06 17:32:00,59.0,22.3,30.37,SE,135,2.0,6.0,24,0.00,,,0.00,meteohub,2013-04-06 21:32:00,
2013-04-06 17:42:00,57.9,21.4,30.37,SE,135,6.0,6.0,24,0.00,,,0.00,meteohub,2013-04-06 21:42:00,
2013-04-06 17:52:00,59.0,21.2,30.37,SE,135,5.0,6.0,23,0.00,,,0.00,meteohub,2013-04-06 21:52:00,
2013-04-06 18:02:00,57.9,22.3,30.37,ESE,112,1.0,7.0,25,0.00,,,0.00,meteohub,2013-04-06 22:02:00,
2013-04-06 18:12:00,57.0,23.4,30.37,SE,135,2.0,7.0,27,0.00,,,0.00,meteohub,2013-04-06 22:12:00,
2013-04-06 18:22:00,55.9,25.0,30.37,East,90,4.0,6.0,30,0.00,,,0.00,meteohub,2013-04-06 22:22:00,
2013-04-06 18:32:00,55.0,23.4,30.37,SE,135,1.0,8.0,29,0.00,,,0.00,meteohub,2013-04-06 22:32:00,
2013-04-06 18:42:00,55.0,24.1,30.37,SE,135,1.0,7.0,30,0.00,,,0.00,meteohub,2013-04-06 22:42:00,
2013-04-06 18:52:00,54.0,23.2,30.37,SE,135,4.0,7.0,30,0.00,,,0.00,meteohub,2013-04-06 22:52:00,
2013-04-06 19:02:00,53.1,23.9,30.36,SE,135,2.0,6.0,32,0.00,,,0.00,meteohub,2013-04-06 23:02:00,
2013-04-06 19:12:00,52.0,20.7,30.36,SE,135,4.0,6.0,29,0.00,,,0.00,meteohub,2013-04-06 23:12:00,
2013-04-06 19:22:00,52.0,20.7,30.36,SE,135,3.0,7.0,29,0.00,,,0.00,meteohub,2013-04-06 23:22:00,
2013-04-06 19:32:00,51.1,18.3,30.35,SE,135,5.0,8.0,27,0.00,,,0.00,meteohub,2013-04-06 23:32:00,
2013-04-06 19:42:00,51.1,17.4,30.36,SE,135,4.0,9.0,26,0.00,,,0.00,meteohub,2013-04-06 23:42:00,
2013-04-06 19:52:00,50.0,17.2,30.35,SE,135,2.0,9.0,27,0.00,,,0.00,meteohub,2013-04-06 23:52:00,
2013-04-06 20:02:00,50.0,16.5,30.35,SE,135,5.0,6.0,26,0.00,,,0.00,meteohub,2013-04-07 00:02:00,
2013-04-06 20:12:00,48.9,15.4,30.35,SE,135,4.0,7.0,26,0.00,,,0.00,meteohub,2013-04-07 00:12:00,
2013-04-06 20:22:00,48.9,15.4,30.35,South,180,2.0,6.0,26,0.00,,,0.00,meteohub,2013-04-07 00:22:00,
2013-04-06 20:32:00,48.9,15.4,30.35,SE,135,4.0,7.0,26,0.00,,,0.00,meteohub,2013-04-07 00:32:00,
2013-04-06 20:42:00,48.9,16.3,30.35,SE,135,4.0,5.0,27,0.00,,,0.00,meteohub,2013-04-07 00:42:00,
2013-04-06 20:52:00,48.0,15.6,30.35,SE,135,3.0,5.0,27,0.00,,,0.00,meteohub,2013-04-07 00:52:00,
2013-04-06 21:02:00,48.0,16.5,30.35,SE,135,2.0,5.0,28,0.00,,,0.00,meteohub,2013-04-07 01:02:00,
2013-04-06 21:12:00,48.0,17.2,30.35,SE,135,2.0,4.0,29,0.00,,,0.00,meteohub,2013-04-07 01:12:00,
2013-04-06 21:22:00,48.0,18.9,30.35,SE,135,4.0,5.0,31,0.00,,,0.00,meteohub,2013-04-07 01:22:00,
2013-04-06 21:32:00,48.0,21.0,30.35,SE,135,2.0,5.0,34,0.00,,,0.00,meteohub,2013-04-07 01:32:00,
2013-04-06 21:42:00,46.9,21.4,30.35,SE,135,2.0,4.0,36,0.00,,,0.00,meteohub,2013-04-07 01:42:00,
2013-04-06 21:52:00,46.9,22.1,30.35,SE,135,2.0,4.0,37,0.00,,,0.00,meteohub,2013-04-07 01:52:00,
2013-04-06 22:02:00,46.9,22.6,30.35,SE,135,2.0,6.0,38,0.00,,,0.00,meteohub,2013-04-07 02:02:00,
2013-04-06 22:12:00,46.9,23.2,30.35,SE,135,3.0,6.0,39,0.00,,,0.00,meteohub,2013-04-07 02:12:00,
2013-04-06 22:22:00,46.9,24.4,30.35,SE,135,2.0,5.0,41,0.00,,,0.00,meteohub,2013-04-07 02:22:00,
2013-04-06 22:32:00,46.0,24.3,30.35,South,180,1.0,4.0,42,0.00,,,0.00,meteohub,2013-04-07 02:32:00,
2013-04-06 22:42:00,46.0,24.8,30.35,SE,135,0.0,4.0,43,0.00,,,0.00,meteohub,2013-04-07 02:42:00,
2013-04-06 22:52:00,46.0,26.4,30.35,SE,135,1.0,5.0,46,0.00,,,0.00,meteohub,2013-04-07 02:52:00,
2013-04-06 23:02:00,46.0,27.5,30.34,SE,135,2.0,6.0,48,0.00,,,0.00,meteohub,2013-04-07 03:02:00,
2013-04-06 23:12:00,45.0,27.5,30.34,SW,225,0.0,6.0,50,0.00,,,0.00,meteohub,2013-04-07 03:12:00,
2013-04-06 23:22:00,45.0,28.9,30.34,SE,135,6.0,7.0,53,0.00,,,0.00,meteohub,2013-04-07 03:22:00,
2013-04-06 23:32:00,45.0,30.6,30.34,SSE,157,5.0,7.0,57,0.00,,,0.00,meteohub,2013-04-07 03:32:00,
2013-04-06 23:42:00,44.1,30.2,30.34,South,180,3.0,9.0,58,0.00,,,0.00,meteohub,2013-04-07 03:42:00,
2013-04-06 23:52:00,44.1,31.1,30.34,South,180,1.0,7.0,60,0.00,,,0.00,meteohub,2013-04-07 03:52:00,